sensor_id;sensor_type;location;lat;lon;timestamp;temperature;humidity
37240;DHT22;23130;48.760;9.178;2023-04-03T00:00:26;3.20;99.90
37240;DHT22;23130;48.760;9.178;2023-04-03T00:02:51;3.20;99.90
37240;DHT22;23130;48.760;9.178;2023-04-03T00:05:17;3.20;99.90
37240;DHT22;23130;48.760;9.178;2023-04-03T00:07:42;3.10;99.90
37240;DHT22;23130;48.760;9.178;2023-04-03T00:10:08;3.10;99.90
37240;DHT22;23130;48.760;9.178;2023-04-03T00:12:34;3.00;99.90
37240;DHT22;23130;48.760;9.178;2023-04-03T00:14:59;3.00;99.90
37240;DHT22;23130;48.760;9.178;2023-04-03T00:17:25;2.90;99.90
37240;DHT22;23130;48.760;9.178;2023-04-03T00:19:50;2.80;99.90
37240;DHT22;23130;48.760;9.178;2023-04-03T00:22:16;2.90;99.90
37240;DHT22;23130;48.760;9.178;2023-04-03T00:24:41;2.80;99.90
37240;DHT22;23130;48.760;9.178;2023-04-03T00:27:07;2.80;99.90
37240;DHT22;23130;48.760;9.178;2023-04-03T00:29:33;2.80;99.90
37240;DHT22;23130;48.760;9.178;2023-04-03T00:31:58;2.80;99.90
37240;DHT22;23130;48.760;9.178;2023-04-03T00:34:25;2.80;99.90
37240;DHT22;23130;48.760;9.178;2023-04-03T00:36:50;2.80;99.90
37240;DHT22;23130;48.760;9.178;2023-04-03T00:39:16;2.90;99.90
37240;DHT22;23130;48.760;9.178;2023-04-03T00:41:42;2.90;99.90
37240;DHT22;23130;48.760;9.178;2023-04-03T00:46:58;2.90;99.90
37240;DHT22;23130;48.760;9.178;2023-04-03T00:49:24;3.00;99.90
37240;DHT22;23130;48.760;9.178;2023-04-03T00:51:50;3.00;99.90
37240;DHT22;23130;48.760;9.178;2023-04-03T00:54:18;2.90;99.90
37240;DHT22;23130;48.760;9.178;2023-04-03T00:56:44;2.90;99.90
37240;DHT22;23130;48.760;9.178;2023-04-03T00:59:17;3.00;99.90
37240;DHT22;23130;48.760;9.178;2023-04-03T01:01:43;3.00;99.90
37240;DHT22;23130;48.760;9.178;2023-04-03T01:04:35;3.00;99.90
37240;DHT22;23130;48.760;9.178;2023-04-03T01:07:08;3.00;99.90
37240;DHT22;23130;48.760;9.178;2023-04-03T01:09:34;2.90;99.90
37240;DHT22;23130;48.760;9.178;2023-04-03T01:12:26;2.90;99.90
37240;DHT22;23130;48.760;9.178;2023-04-03T01:14:55;2.90;99.90
37240;DHT22;23130;48.760;9.178;2023-04-03T01:25:32;2.90;99.90
37240;DHT22;23130;48.760;9.178;2023-04-03T01:27:58;2.90;99.90
37240;DHT22;23130;48.760;9.178;2023-04-03T01:30:30;2.80;99.90
37240;DHT22;23130;48.760;9.178;2023-04-03T01:32:56;2.80;99.90
37240;DHT22;23130;48.760;9.178;2023-04-03T01:35:22;2.70;99.90
37240;DHT22;23130;48.760;9.178;2023-04-03T01:37:48;2.70;99.90
37240;DHT22;23130;48.760;9.178;2023-04-03T01:40:13;2.70;99.90
37240;DHT22;23130;48.760;9.178;2023-04-03T01:42:39;2.70;99.90
37240;DHT22;23130;48.760;9.178;2023-04-03T01:45:05;2.60;99.90
37240;DHT22;23130;48.760;9.178;2023-04-03T01:47:31;2.60;99.90
37240;DHT22;23130;48.760;9.178;2023-04-03T01:49:56;2.60;99.90
37240;DHT22;23130;48.760;9.178;2023-04-03T01:52:22;2.60;99.90
37240;DHT22;23130;48.760;9.178;2023-04-03T01:54:47;2.60;99.90
37240;DHT22;23130;48.760;9.178;2023-04-03T01:57:13;2.60;99.90
37240;DHT22;23130;48.760;9.178;2023-04-03T01:59:40;2.60;99.90
37240;DHT22;23130;48.760;9.178;2023-04-03T02:02:06;2.60;99.90
37240;DHT22;23130;48.760;9.178;2023-04-03T02:04:31;2.60;99.90
37240;DHT22;23130;48.760;9.178;2023-04-03T02:06:57;2.60;99.90
37240;DHT22;23130;48.760;9.178;2023-04-03T02:09:22;2.60;99.90
37240;DHT22;23130;48.760;9.178;2023-04-03T02:11:48;2.60;99.90
37240;DHT22;23130;48.760;9.178;2023-04-03T02:14:13;2.60;99.90
37240;DHT22;23130;48.760;9.178;2023-04-03T02:16:39;2.60;99.90
37240;DHT22;23130;48.760;9.178;2023-04-03T02:19:06;2.70;99.90
37240;DHT22;23130;48.760;9.178;2023-04-03T02:21:31;2.70;99.90
37240;DHT22;23130;48.760;9.178;2023-04-03T02:23:57;2.80;99.90
37240;DHT22;23130;48.760;9.178;2023-04-03T02:26:22;2.80;99.90
37240;DHT22;23130;48.760;9.178;2023-04-03T02:28:48;2.80;99.90
37240;DHT22;23130;48.760;9.178;2023-04-03T02:31:14;2.90;99.90
37240;DHT22;23130;48.760;9.178;2023-04-03T02:33:40;2.80;99.90
37240;DHT22;23130;48.760;9.178;2023-04-03T02:36:07;2.80;99.90
37240;DHT22;23130;48.760;9.178;2023-04-03T02:38:33;2.80;99.90
37240;DHT22;23130;48.760;9.178;2023-04-03T02:41:07;2.80;99.90
37240;DHT22;23130;48.760;9.178;2023-04-03T02:43:33;2.80;99.90
37240;DHT22;23130;48.760;9.178;2023-04-03T02:45:58;2.90;99.90
37240;DHT22;23130;48.760;9.178;2023-04-03T02:48:24;2.90;99.90
37240;DHT22;23130;48.760;9.178;2023-04-03T02:50:50;2.80;99.90
37240;DHT22;23130;48.760;9.178;2023-04-03T02:53:16;2.80;99.90
37240;DHT22;23130;48.760;9.178;2023-04-03T02:55:41;2.80;99.90
37240;DHT22;23130;48.760;9.178;2023-04-03T02:58:07;2.80;99.90
37240;DHT22;23130;48.760;9.178;2023-04-03T03:00:33;2.80;99.90
37240;DHT22;23130;48.760;9.178;2023-04-03T03:02:59;2.80;99.90
37240;DHT22;23130;48.760;9.178;2023-04-03T03:05:25;2.80;99.90
37240;DHT22;23130;48.760;9.178;2023-04-03T03:07:51;2.70;99.90
37240;DHT22;23130;48.760;9.178;2023-04-03T03:10:17;2.70;99.90
37240;DHT22;23130;48.760;9.178;2023-04-03T03:12:42;2.70;99.90
37240;DHT22;23130;48.760;9.178;2023-04-03T03:15:08;2.70;99.90
37240;DHT22;23130;48.760;9.178;2023-04-03T03:17:34;2.70;99.90
37240;DHT22;23130;48.760;9.178;2023-04-03T03:20:02;2.80;99.90
37240;DHT22;23130;48.760;9.178;2023-04-03T03:22:28;2.80;99.90
37240;DHT22;23130;48.760;9.178;2023-04-03T03:24:53;2.80;99.90
37240;DHT22;23130;48.760;9.178;2023-04-03T03:27:19;2.80;99.90
37240;DHT22;23130;48.760;9.178;2023-04-03T03:29:45;2.80;99.90
37240;DHT22;23130;48.760;9.178;2023-04-03T03:32:10;2.70;99.90
37240;DHT22;23130;48.760;9.178;2023-04-03T03:34:36;2.70;99.90
37240;DHT22;23130;48.760;9.178;2023-04-03T03:37:01;2.70;99.90
37240;DHT22;23130;48.760;9.178;2023-04-03T03:39:27;2.70;99.90
37240;DHT22;23130;48.760;9.178;2023-04-03T03:41:53;2.70;99.90
37240;DHT22;23130;48.760;9.178;2023-04-03T03:44:19;2.70;99.90
37240;DHT22;23130;48.760;9.178;2023-04-03T03:46:45;2.80;99.90
37240;DHT22;23130;48.760;9.178;2023-04-03T03:49:11;2.80;99.90
37240;DHT22;23130;48.760;9.178;2023-04-03T03:51:37;2.80;99.90
37240;DHT22;23130;48.760;9.178;2023-04-03T03:54:04;2.70;99.90
37240;DHT22;23130;48.760;9.178;2023-04-03T03:56:30;2.70;99.90
37240;DHT22;23130;48.760;9.178;2023-04-03T03:58:55;2.70;99.90
37240;DHT22;23130;48.760;9.178;2023-04-03T04:01:22;2.70;99.90
37240;DHT22;23130;48.760;9.178;2023-04-03T04:03:48;2.80;99.90
37240;DHT22;23130;48.760;9.178;2023-04-03T04:06:14;2.70;99.90
37240;DHT22;23130;48.760;9.178;2023-04-03T04:08:40;2.80;99.90
37240;DHT22;23130;48.760;9.178;2023-04-03T04:11:06;2.80;99.90
37240;DHT22;23130;48.760;9.178;2023-04-03T04:13:32;2.80;99.90
37240;DHT22;23130;48.760;9.178;2023-04-03T04:15:58;2.80;99.90
37240;DHT22;23130;48.760;9.178;2023-04-03T04:18:23;2.90;99.90
37240;DHT22;23130;48.760;9.178;2023-04-03T04:20:49;2.90;99.90
37240;DHT22;23130;48.760;9.178;2023-04-03T04:23:16;2.80;99.90
37240;DHT22;23130;48.760;9.178;2023-04-03T04:25:44;2.90;99.90
37240;DHT22;23130;48.760;9.178;2023-04-03T04:28:11;2.90;99.90
37240;DHT22;23130;48.760;9.178;2023-04-03T04:30:36;2.90;99.90
37240;DHT22;23130;48.760;9.178;2023-04-03T04:33:02;2.90;99.90
37240;DHT22;23130;48.760;9.178;2023-04-03T04:35:28;2.90;99.90
37240;DHT22;23130;48.760;9.178;2023-04-03T04:37:53;2.90;99.90
37240;DHT22;23130;48.760;9.178;2023-04-03T04:40:19;2.90;99.90
37240;DHT22;23130;48.760;9.178;2023-04-03T04:42:44;2.90;99.90
37240;DHT22;23130;48.760;9.178;2023-04-03T04:45:10;2.90;99.90
37240;DHT22;23130;48.760;9.178;2023-04-03T04:47:36;3.00;99.90
37240;DHT22;23130;48.760;9.178;2023-04-03T04:50:01;3.00;99.90
37240;DHT22;23130;48.760;9.178;2023-04-03T04:52:27;3.00;99.90
37240;DHT22;23130;48.760;9.178;2023-04-03T04:54:52;2.90;99.90
37240;DHT22;23130;48.760;9.178;2023-04-03T04:57:18;2.90;99.90
37240;DHT22;23130;48.760;9.178;2023-04-03T04:59:43;2.80;99.90
37240;DHT22;23130;48.760;9.178;2023-04-03T05:02:09;2.80;99.90
37240;DHT22;23130;48.760;9.178;2023-04-03T05:04:35;2.80;99.90
37240;DHT22;23130;48.760;9.178;2023-04-03T05:07:00;2.80;99.90
37240;DHT22;23130;48.760;9.178;2023-04-03T05:09:26;2.80;99.90
37240;DHT22;23130;48.760;9.178;2023-04-03T05:14:21;2.80;99.90
37240;DHT22;23130;48.760;9.178;2023-04-03T05:16:46;2.80;99.90
37240;DHT22;23130;48.760;9.178;2023-04-03T05:19:13;2.90;99.90
37240;DHT22;23130;48.760;9.178;2023-04-03T05:21:39;2.90;99.90
37240;DHT22;23130;48.760;9.178;2023-04-03T05:24:05;2.90;99.90
37240;DHT22;23130;48.760;9.178;2023-04-03T05:26:34;3.00;99.90
37240;DHT22;23130;48.760;9.178;2023-04-03T05:29:00;3.00;99.90
37240;DHT22;23130;48.760;9.178;2023-04-03T05:31:26;3.10;99.90
37240;DHT22;23130;48.760;9.178;2023-04-03T05:33:54;3.10;99.90
37240;DHT22;23130;48.760;9.178;2023-04-03T05:36:20;3.20;99.90
37240;DHT22;23130;48.760;9.178;2023-04-03T05:38:46;3.30;99.90
37240;DHT22;23130;48.760;9.178;2023-04-03T05:41:11;3.30;99.90
37240;DHT22;23130;48.760;9.178;2023-04-03T05:43:37;3.40;99.90
37240;DHT22;23130;48.760;9.178;2023-04-03T05:46:08;3.50;99.90
37240;DHT22;23130;48.760;9.178;2023-04-03T05:48:33;3.50;99.90
37240;DHT22;23130;48.760;9.178;2023-04-03T05:50:59;3.50;99.90
37240;DHT22;23130;48.760;9.178;2023-04-03T05:53:28;3.60;99.90
37240;DHT22;23130;48.760;9.178;2023-04-03T05:55:54;3.60;99.90
37240;DHT22;23130;48.760;9.178;2023-04-03T05:58:20;3.70;99.90
37240;DHT22;23130;48.760;9.178;2023-04-03T06:00:46;3.80;99.90
37240;DHT22;23130;48.760;9.178;2023-04-03T06:03:11;3.70;99.90
37240;DHT22;23130;48.760;9.178;2023-04-03T06:05:37;4.00;99.90
37240;DHT22;23130;48.760;9.178;2023-04-03T06:08:02;4.50;99.90
37240;DHT22;23130;48.760;9.178;2023-04-03T06:10:28;5.30;99.90
37240;DHT22;23130;48.760;9.178;2023-04-03T06:12:54;5.70;99.90
37240;DHT22;23130;48.760;9.178;2023-04-03T06:15:20;5.80;99.90
37240;DHT22;23130;48.760;9.178;2023-04-03T06:17:47;5.50;99.90
37240;DHT22;23130;48.760;9.178;2023-04-03T06:20:13;5.30;99.90
37240;DHT22;23130;48.760;9.178;2023-04-03T06:22:38;5.40;99.90
37240;DHT22;23130;48.760;9.178;2023-04-03T06:25:05;5.40;99.90
37240;DHT22;23130;48.760;9.178;2023-04-03T06:27:31;5.10;99.90
37240;DHT22;23130;48.760;9.178;2023-04-03T06:29:57;4.90;99.90
37240;DHT22;23130;48.760;9.178;2023-04-03T06:32:22;4.50;99.90
37240;DHT22;23130;48.760;9.178;2023-04-03T06:34:48;4.30;99.90
37240;DHT22;23130;48.760;9.178;2023-04-03T06:37:18;4.30;99.90
37240;DHT22;23130;48.760;9.178;2023-04-03T06:39:44;4.20;99.90
37240;DHT22;23130;48.760;9.178;2023-04-03T06:42:10;4.30;99.90
37240;DHT22;23130;48.760;9.178;2023-04-03T06:44:36;4.30;99.90
37240;DHT22;23130;48.760;9.178;2023-04-03T06:47:02;4.30;99.90
37240;DHT22;23130;48.760;9.178;2023-04-03T06:49:28;4.30;99.90
37240;DHT22;23130;48.760;9.178;2023-04-03T06:51:54;4.30;99.90
37240;DHT22;23130;48.760;9.178;2023-04-03T06:54:20;4.30;99.90
37240;DHT22;23130;48.760;9.178;2023-04-03T06:56:46;4.40;99.90
37240;DHT22;23130;48.760;9.178;2023-04-03T06:59:12;4.50;99.90
37240;DHT22;23130;48.760;9.178;2023-04-03T07:01:39;4.50;99.90
37240;DHT22;23130;48.760;9.178;2023-04-03T07:04:06;4.50;99.90
37240;DHT22;23130;48.760;9.178;2023-04-03T07:06:31;4.60;99.90
37240;DHT22;23130;48.760;9.178;2023-04-03T07:08:59;4.60;99.90
37240;DHT22;23130;48.760;9.178;2023-04-03T07:11:25;4.70;99.90
37240;DHT22;23130;48.760;9.178;2023-04-03T07:13:51;4.70;99.90
37240;DHT22;23130;48.760;9.178;2023-04-03T07:16:17;4.80;99.90
37240;DHT22;23130;48.760;9.178;2023-04-03T07:18:44;4.80;99.90
37240;DHT22;23130;48.760;9.178;2023-04-03T07:21:10;4.90;99.90
37240;DHT22;23130;48.760;9.178;2023-04-03T07:23:36;4.80;99.90
37240;DHT22;23130;48.760;9.178;2023-04-03T07:26:02;5.00;99.90
37240;DHT22;23130;48.760;9.178;2023-04-03T07:28:28;5.00;99.90
37240;DHT22;23130;48.760;9.178;2023-04-03T07:31:00;5.10;99.90
37240;DHT22;23130;48.760;9.178;2023-04-03T07:33:26;5.20;99.90
37240;DHT22;23130;48.760;9.178;2023-04-03T07:35:52;5.30;99.90
37240;DHT22;23130;48.760;9.178;2023-04-03T07:38:18;5.40;99.90
37240;DHT22;23130;48.760;9.178;2023-04-03T07:40:47;5.50;99.90
37240;DHT22;23130;48.760;9.178;2023-04-03T07:43:14;5.40;99.90
37240;DHT22;23130;48.760;9.178;2023-04-03T07:45:40;5.30;99.90
37240;DHT22;23130;48.760;9.178;2023-04-03T07:48:05;5.40;99.90
37240;DHT22;23130;48.760;9.178;2023-04-03T07:50:31;5.50;99.90
37240;DHT22;23130;48.760;9.178;2023-04-03T07:52:58;5.60;99.90
37240;DHT22;23130;48.760;9.178;2023-04-03T07:55:24;5.60;99.90
37240;DHT22;23130;48.760;9.178;2023-04-03T07:57:50;5.70;99.90
37240;DHT22;23130;48.760;9.178;2023-04-03T08:00:16;5.80;99.90
37240;DHT22;23130;48.760;9.178;2023-04-03T08:02:43;5.90;99.90
37240;DHT22;23130;48.760;9.178;2023-04-03T08:05:10;5.70;99.90
37240;DHT22;23130;48.760;9.178;2023-04-03T08:07:37;5.60;99.90
37240;DHT22;23130;48.760;9.178;2023-04-03T08:10:03;5.60;99.90
37240;DHT22;23130;48.760;9.178;2023-04-03T08:12:29;5.70;99.90
37240;DHT22;23130;48.760;9.178;2023-04-03T08:14:55;5.60;99.90
37240;DHT22;23130;48.760;9.178;2023-04-03T08:17:21;5.70;99.90
37240;DHT22;23130;48.760;9.178;2023-04-03T08:19:46;5.80;99.90
37240;DHT22;23130;48.760;9.178;2023-04-03T08:22:12;5.80;99.90
37240;DHT22;23130;48.760;9.178;2023-04-03T08:24:38;5.70;99.90
37240;DHT22;23130;48.760;9.178;2023-04-03T08:27:03;5.80;99.90
37240;DHT22;23130;48.760;9.178;2023-04-03T08:29:29;5.80;99.90
37240;DHT22;23130;48.760;9.178;2023-04-03T08:31:55;5.80;99.90
37240;DHT22;23130;48.760;9.178;2023-04-03T08:34:20;5.80;99.90
37240;DHT22;23130;48.760;9.178;2023-04-03T08:36:46;5.70;99.90
37240;DHT22;23130;48.760;9.178;2023-04-03T08:39:12;5.60;99.90
37240;DHT22;23130;48.760;9.178;2023-04-03T08:41:43;5.70;99.90
37240;DHT22;23130;48.760;9.178;2023-04-03T08:44:25;5.50;99.90
37240;DHT22;23130;48.760;9.178;2023-04-03T08:46:56;5.50;99.90
37240;DHT22;23130;48.760;9.178;2023-04-03T08:49:31;5.60;99.90
37240;DHT22;23130;48.760;9.178;2023-04-03T08:52:00;5.70;99.90
37240;DHT22;23130;48.760;9.178;2023-04-03T08:54:32;5.90;99.90
37240;DHT22;23130;48.760;9.178;2023-04-03T08:57:01;6.10;99.90
37240;DHT22;23130;48.760;9.178;2023-04-03T08:59:32;6.30;99.90
37240;DHT22;23130;48.760;9.178;2023-04-03T09:02:01;6.40;99.90
37240;DHT22;23130;48.760;9.178;2023-04-03T09:04:31;6.50;99.90
37240;DHT22;23130;48.760;9.178;2023-04-03T09:07:03;6.40;99.90
37240;DHT22;23130;48.760;9.178;2023-04-03T09:09:58;6.40;99.90
37240;DHT22;23130;48.760;9.178;2023-04-03T09:12:33;6.40;99.90
37240;DHT22;23130;48.760;9.178;2023-04-03T09:18:38;6.60;99.90
37240;DHT22;23130;48.760;9.178;2023-04-03T09:23:30;6.70;99.90
37240;DHT22;23130;48.760;9.178;2023-04-03T09:26:02;6.70;99.90
37240;DHT22;23130;48.760;9.178;2023-04-03T09:28:33;6.70;99.90
37240;DHT22;23130;48.760;9.178;2023-04-03T09:31:00;6.50;99.90
37240;DHT22;23130;48.760;9.178;2023-04-03T09:33:26;6.40;99.90
37240;DHT22;23130;48.760;9.178;2023-04-03T09:35:52;6.20;99.90
37240;DHT22;23130;48.760;9.178;2023-04-03T09:38:20;6.30;99.90
37240;DHT22;23130;48.760;9.178;2023-04-03T09:41:02;6.30;99.90
37240;DHT22;23130;48.760;9.178;2023-04-03T09:43:34;6.30;99.90
37240;DHT22;23130;48.760;9.178;2023-04-03T09:48:57;6.40;99.90
37240;DHT22;23130;48.760;9.178;2023-04-03T09:51:28;6.50;99.90
37240;DHT22;23130;48.760;9.178;2023-04-03T09:53:54;6.60;99.90
37240;DHT22;23130;48.760;9.178;2023-04-03T09:56:27;6.50;99.90
37240;DHT22;23130;48.760;9.178;2023-04-03T10:04:08;6.30;99.90
37240;DHT22;23130;48.760;9.178;2023-04-03T10:06:38;6.20;99.90
37240;DHT22;23130;48.760;9.178;2023-04-03T10:14:31;6.10;99.90
37240;DHT22;23130;48.760;9.178;2023-04-03T10:25:22;6.10;99.90
37240;DHT22;23130;48.760;9.178;2023-04-03T10:30:33;6.50;99.90
37240;DHT22;23130;48.760;9.178;2023-04-03T10:41:27;6.30;99.90
37240;DHT22;23130;48.760;9.178;2023-04-03T10:44:11;6.20;99.90
37240;DHT22;23130;48.760;9.178;2023-04-03T10:46:52;6.00;99.90
37240;DHT22;23130;48.760;9.178;2023-04-03T10:55:06;6.30;99.90
37240;DHT22;23130;48.760;9.178;2023-04-03T10:57:34;6.40;99.90
37240;DHT22;23130;48.760;9.178;2023-04-03T11:00:16;6.40;99.90
37240;DHT22;23130;48.760;9.178;2023-04-03T11:02:57;6.30;99.90
37240;DHT22;23130;48.760;9.178;2023-04-03T11:05:37;6.30;99.90
37240;DHT22;23130;48.760;9.178;2023-04-03T11:08:27;6.20;99.90
37240;DHT22;23130;48.760;9.178;2023-04-03T11:10:58;6.10;99.90
37240;DHT22;23130;48.760;9.178;2023-04-03T11:13:38;6.30;99.90
37240;DHT22;23130;48.760;9.178;2023-04-03T11:16:06;6.30;99.90
37240;DHT22;23130;48.760;9.178;2023-04-03T11:18:52;6.40;99.90
37240;DHT22;23130;48.760;9.178;2023-04-03T11:21:22;6.60;99.90
37240;DHT22;23130;48.760;9.178;2023-04-03T11:23:51;6.70;99.90
37240;DHT22;23130;48.760;9.178;2023-04-03T11:26:22;6.80;99.90
37240;DHT22;23130;48.760;9.178;2023-04-03T11:28:53;6.80;99.90
37240;DHT22;23130;48.760;9.178;2023-04-03T11:32:01;6.70;99.90
37240;DHT22;23130;48.760;9.178;2023-04-03T11:34:42;6.60;99.90
37240;DHT22;23130;48.760;9.178;2023-04-03T11:37:30;6.70;99.90
37240;DHT22;23130;48.760;9.178;2023-04-03T11:40:02;6.70;99.90
37240;DHT22;23130;48.760;9.178;2023-04-03T12:03:31;6.50;99.90
37240;DHT22;23130;48.760;9.178;2023-04-03T12:11:25;6.80;99.90
37240;DHT22;23130;48.760;9.178;2023-04-03T12:16:30;6.80;99.90
37240;DHT22;23130;48.760;9.178;2023-04-03T12:19:01;6.60;99.90
37240;DHT22;23130;48.760;9.178;2023-04-03T12:23:56;6.50;99.90
37240;DHT22;23130;48.760;9.178;2023-04-03T12:29:24;6.60;99.90
37240;DHT22;23130;48.760;9.178;2023-04-03T12:32:16;6.80;99.90
37240;DHT22;23130;48.760;9.178;2023-04-03T12:35:04;6.90;99.90
37240;DHT22;23130;48.760;9.178;2023-04-03T12:47:37;6.80;99.90
37240;DHT22;23130;48.760;9.178;2023-04-03T12:50:17;6.80;99.90
37240;DHT22;23130;48.760;9.178;2023-04-03T12:52:49;6.80;99.90
37240;DHT22;23130;48.760;9.178;2023-04-03T12:55:18;6.80;99.90
37240;DHT22;23130;48.760;9.178;2023-04-03T12:57:44;7.00;99.90
37240;DHT22;23130;48.760;9.178;2023-04-03T13:02:46;7.30;99.90
37240;DHT22;23130;48.760;9.178;2023-04-03T13:05:18;7.50;99.90
37240;DHT22;23130;48.760;9.178;2023-04-03T13:07:49;7.50;99.90
37240;DHT22;23130;48.760;9.178;2023-04-03T13:10:16;7.30;99.90
37240;DHT22;23130;48.760;9.178;2023-04-03T13:12:55;7.20;99.90
37240;DHT22;23130;48.760;9.178;2023-04-03T13:15:24;7.50;99.90
37240;DHT22;23130;48.760;9.178;2023-04-03T13:17:51;7.80;99.90
37240;DHT22;23130;48.760;9.178;2023-04-03T13:20:25;8.00;99.90
37240;DHT22;23130;48.760;9.178;2023-04-03T13:25:17;8.10;99.90
37240;DHT22;23130;48.760;9.178;2023-04-03T13:27:45;8.30;99.90
37240;DHT22;23130;48.760;9.178;2023-04-03T13:30:24;8.20;99.90
37240;DHT22;23130;48.760;9.178;2023-04-03T13:32:50;8.00;99.90
37240;DHT22;23130;48.760;9.178;2023-04-03T13:35:29;8.00;99.90
37240;DHT22;23130;48.760;9.178;2023-04-03T13:37:57;7.90;99.90
37240;DHT22;23130;48.760;9.178;2023-04-03T13:40:22;7.90;99.90
37240;DHT22;23130;48.760;9.178;2023-04-03T13:42:59;7.70;99.90
37240;DHT22;23130;48.760;9.178;2023-04-03T13:45:27;7.70;99.90
37240;DHT22;23130;48.760;9.178;2023-04-03T13:48:27;7.70;99.90
37240;DHT22;23130;48.760;9.178;2023-04-03T13:51:20;7.70;99.90
37240;DHT22;23130;48.760;9.178;2023-04-03T13:53:56;7.80;99.90
37240;DHT22;23130;48.760;9.178;2023-04-03T13:56:42;8.00;99.90
37240;DHT22;23130;48.760;9.178;2023-04-03T14:02:14;8.10;99.70
37240;DHT22;23130;48.760;9.178;2023-04-03T14:07:07;8.10;99.80
37240;DHT22;23130;48.760;9.178;2023-04-03T14:09:32;8.00;99.60
37240;DHT22;23130;48.760;9.178;2023-04-03T14:12:02;7.90;99.90
37240;DHT22;23130;48.760;9.178;2023-04-03T14:14:33;7.90;99.90
37240;DHT22;23130;48.760;9.178;2023-04-03T14:17:01;7.80;99.80
37240;DHT22;23130;48.760;9.178;2023-04-03T14:19:33;7.60;99.90
37240;DHT22;23130;48.760;9.178;2023-04-03T14:22:05;7.40;99.90
37240;DHT22;23130;48.760;9.178;2023-04-03T14:24:31;7.30;99.90
37240;DHT22;23130;48.760;9.178;2023-04-03T14:26:57;7.20;99.90
37240;DHT22;23130;48.760;9.178;2023-04-03T14:29:24;7.10;99.90
37240;DHT22;23130;48.760;9.178;2023-04-03T14:31:50;7.00;99.90
37240;DHT22;23130;48.760;9.178;2023-04-03T14:34:16;6.90;99.90
37240;DHT22;23130;48.760;9.178;2023-04-03T14:36:43;6.90;99.90
37240;DHT22;23130;48.760;9.178;2023-04-03T14:39:17;6.80;99.90
37240;DHT22;23130;48.760;9.178;2023-04-03T14:41:43;7.00;99.90
37240;DHT22;23130;48.760;9.178;2023-04-03T14:44:08;7.20;99.90
37240;DHT22;23130;48.760;9.178;2023-04-03T14:46:36;7.50;99.90
37240;DHT22;23130;48.760;9.178;2023-04-03T14:49:03;7.70;99.80
37240;DHT22;23130;48.760;9.178;2023-04-03T14:51:32;7.90;99.80
37240;DHT22;23130;48.760;9.178;2023-04-03T14:53:58;7.90;98.60
37240;DHT22;23130;48.760;9.178;2023-04-03T14:56:28;7.60;98.90
37240;DHT22;23130;48.760;9.178;2023-04-03T14:58:57;7.40;99.40
37240;DHT22;23130;48.760;9.178;2023-04-03T15:01:24;7.40;99.50
37240;DHT22;23130;48.760;9.178;2023-04-03T15:03:50;7.50;99.30
37240;DHT22;23130;48.760;9.178;2023-04-03T15:06:16;7.40;99.60
37240;DHT22;23130;48.760;9.178;2023-04-03T15:08:42;7.50;99.80
37240;DHT22;23130;48.760;9.178;2023-04-03T15:11:11;7.30;99.60
37240;DHT22;23130;48.760;9.178;2023-04-03T15:13:37;7.30;99.90
37240;DHT22;23130;48.760;9.178;2023-04-03T15:16:14;7.30;99.50
37240;DHT22;23130;48.760;9.178;2023-04-03T15:18:40;7.10;98.90
37240;DHT22;23130;48.760;9.178;2023-04-03T15:21:06;6.90;99.20
37240;DHT22;23130;48.760;9.178;2023-04-03T15:23:32;6.90;99.60
37240;DHT22;23130;48.760;9.178;2023-04-03T15:25:57;7.10;99.50
37240;DHT22;23130;48.760;9.178;2023-04-03T15:28:30;7.10;99.20
37240;DHT22;23130;48.760;9.178;2023-04-03T15:30:57;7.20;99.30
37240;DHT22;23130;48.760;9.178;2023-04-03T15:33:24;7.10;99.00
37240;DHT22;23130;48.760;9.178;2023-04-03T15:35:49;6.90;98.40
37240;DHT22;23130;48.760;9.178;2023-04-03T15:38:15;6.70;98.40
37240;DHT22;23130;48.760;9.178;2023-04-03T15:40:41;6.50;98.00
37240;DHT22;23130;48.760;9.178;2023-04-03T15:43:07;6.40;98.50
37240;DHT22;23130;48.760;9.178;2023-04-03T15:45:34;6.30;98.80
37240;DHT22;23130;48.760;9.178;2023-04-03T15:48:01;6.10;99.10
37240;DHT22;23130;48.760;9.178;2023-04-03T15:50:28;6.00;99.40
37240;DHT22;23130;48.760;9.178;2023-04-03T15:52:53;5.90;99.60
37240;DHT22;23130;48.760;9.178;2023-04-03T15:55:24;5.90;99.70
37240;DHT22;23130;48.760;9.178;2023-04-03T15:57:50;6.00;99.90
37240;DHT22;23130;48.760;9.178;2023-04-03T16:00:16;6.10;99.70
37240;DHT22;23130;48.760;9.178;2023-04-03T16:02:44;6.30;99.80
37240;DHT22;23130;48.760;9.178;2023-04-03T16:05:10;6.50;99.80
37240;DHT22;23130;48.760;9.178;2023-04-03T16:07:40;6.60;99.70
37240;DHT22;23130;48.760;9.178;2023-04-03T16:10:07;6.70;99.10
37240;DHT22;23130;48.760;9.178;2023-04-03T16:12:33;6.80;99.10
37240;DHT22;23130;48.760;9.178;2023-04-03T16:14:59;6.80;98.10
37240;DHT22;23130;48.760;9.178;2023-04-03T16:17:26;6.90;98.20
37240;DHT22;23130;48.760;9.178;2023-04-03T16:19:52;6.90;98.20
37240;DHT22;23130;48.760;9.178;2023-04-03T16:22:17;7.00;98.10
37240;DHT22;23130;48.760;9.178;2023-04-03T16:24:43;6.90;98.30
37240;DHT22;23130;48.760;9.178;2023-04-03T16:27:08;6.70;97.40
37240;DHT22;23130;48.760;9.178;2023-04-03T16:29:34;6.40;98.10
37240;DHT22;23130;48.760;9.178;2023-04-03T16:32:01;6.30;98.30
37240;DHT22;23130;48.760;9.178;2023-04-03T16:34:27;6.10;98.50
37240;DHT22;23130;48.760;9.178;2023-04-03T16:36:55;6.00;98.20
37240;DHT22;23130;48.760;9.178;2023-04-03T16:39:21;6.00;98.60
37240;DHT22;23130;48.760;9.178;2023-04-03T16:41:46;6.00;98.40
37240;DHT22;23130;48.760;9.178;2023-04-03T16:44:12;5.90;98.00
37240;DHT22;23130;48.760;9.178;2023-04-03T16:46:37;5.90;97.60
37240;DHT22;23130;48.760;9.178;2023-04-03T16:49:03;6.00;98.00
37240;DHT22;23130;48.760;9.178;2023-04-03T16:51:29;6.00;98.40
37240;DHT22;23130;48.760;9.178;2023-04-03T16:53:55;6.10;98.00
37240;DHT22;23130;48.760;9.178;2023-04-03T16:56:21;6.10;98.20
37240;DHT22;23130;48.760;9.178;2023-04-03T16:58:47;6.10;98.50
37240;DHT22;23130;48.760;9.178;2023-04-03T17:01:15;6.10;98.50
37240;DHT22;23130;48.760;9.178;2023-04-03T17:03:41;6.20;98.90
37240;DHT22;23130;48.760;9.178;2023-04-03T17:06:06;6.20;98.90
37240;DHT22;23130;48.760;9.178;2023-04-03T17:08:32;6.20;98.20
37240;DHT22;23130;48.760;9.178;2023-04-03T17:10:58;6.30;98.50
37240;DHT22;23130;48.760;9.178;2023-04-03T17:13:25;6.30;98.70
37240;DHT22;23130;48.760;9.178;2023-04-03T17:15:56;6.30;99.10
37240;DHT22;23130;48.760;9.178;2023-04-03T17:18:22;6.20;98.70
37240;DHT22;23130;48.760;9.178;2023-04-03T17:20:48;6.20;98.80
37240;DHT22;23130;48.760;9.178;2023-04-03T17:23:13;6.10;98.80
37240;DHT22;23130;48.760;9.178;2023-04-03T17:25:39;6.10;99.30
37240;DHT22;23130;48.760;9.178;2023-04-03T17:28:04;6.00;99.30
37240;DHT22;23130;48.760;9.178;2023-04-03T17:30:30;6.00;99.50
37240;DHT22;23130;48.760;9.178;2023-04-03T17:32:55;5.90;99.10
37240;DHT22;23130;48.760;9.178;2023-04-03T17:35:21;5.80;99.40
37240;DHT22;23130;48.760;9.178;2023-04-03T17:37:48;5.70;99.30
37240;DHT22;23130;48.760;9.178;2023-04-03T17:40:18;5.60;99.50
37240;DHT22;23130;48.760;9.178;2023-04-03T17:42:43;5.50;99.80